createdAt,value
2023-03-05T00:00:41.959Z,66.67
2023-03-05T00:01:43.622Z,66.37
2023-03-05T00:02:45.175Z,66.60
2023-03-05T00:03:46.811Z,66.35
2023-03-05T00:04:48.417Z,66.25
2023-03-05T00:05:49.870Z,66.34
2023-03-05T00:06:51.344Z,66.68
2023-03-05T00:07:52.828Z,66.36
2023-03-05T00:08:57.148Z,65.85
2023-03-05T00:10:05.718Z,66.10
2023-03-05T00:11:11.168Z,66.42
2023-03-05T00:12:12.613Z,66.08
2023-03-05T00:13:14.263Z,66.15
2023-03-05T00:14:17.686Z,66.35
2023-03-05T00:15:19.651Z,67.25
2023-03-05T00:16:22.536Z,66.98
2023-03-05T00:17:24.005Z,67.00
2023-03-05T00:18:25.496Z,66.93
2023-03-05T00:19:27.503Z,66.69
2023-03-05T00:20:28.943Z,66.84
2023-03-05T00:21:39.520Z,66.56
2023-03-05T00:22:41.115Z,66.46
2023-03-05T00:23:42.927Z,66.39
2023-03-05T00:24:44.396Z,66.68
2023-03-05T00:25:46.696Z,66.88
2023-03-05T00:26:48.342Z,66.06
2023-03-05T00:27:52.154Z,66.46
2023-03-05T00:28:56.070Z,66.51
2023-03-05T00:29:57.683Z,66.67
2023-03-05T00:31:01.339Z,66.93
2023-03-05T00:32:02.964Z,66.72
2023-03-05T00:33:04.543Z,67.13
2023-03-05T00:34:09.189Z,67.07
2023-03-05T00:35:10.926Z,67.04
2023-03-05T00:36:12.691Z,67.61
2023-03-05T00:37:14.297Z,67.45
2023-03-05T00:38:16.157Z,67.90
2023-03-05T00:39:19.432Z,67.82
2023-03-05T00:40:21.136Z,67.71
2023-03-05T00:41:22.996Z,68.00
2023-03-05T00:42:24.494Z,67.84
2023-03-05T00:43:26.225Z,67.65
2023-03-05T00:44:27.799Z,67.34
2023-03-05T00:45:29.504Z,67.62
2023-03-05T00:46:31.112Z,67.78
2023-03-05T00:47:32.698Z,67.69
2023-03-05T00:48:40.643Z,67.25
2023-03-05T00:49:42.334Z,67.79
2023-03-05T00:50:45.874Z,67.54
2023-03-05T00:51:49.870Z,67.54
2023-03-05T00:52:51.632Z,67.50
2023-03-05T00:53:53.300Z,67.44
2023-03-05T00:54:54.796Z,67.48
2023-03-05T00:55:56.325Z,67.48
2023-03-05T00:57:00.402Z,67.69
2023-03-05T00:58:02.395Z,67.82
2023-03-05T00:59:04.179Z,67.64
2023-03-05T01:00:07.496Z,68.11
2023-03-05T01:01:09.420Z,67.67
2023-03-05T01:02:10.927Z,68.19
2023-03-05T01:03:12.731Z,68.00
2023-03-05T01:04:14.227Z,67.81
2023-03-05T01:05:16.130Z,67.98
2023-03-05T01:06:18.580Z,68.01
2023-03-05T01:07:20.046Z,68.09
2023-03-05T01:08:21.532Z,68.82
2023-03-05T01:09:25.224Z,68.67
2023-03-05T01:10:27.480Z,68.88
2023-03-05T01:11:29.063Z,68.63
2023-03-05T01:12:30.641Z,68.59
2023-03-05T01:13:35.361Z,68.58
2023-03-05T01:14:37.191Z,68.58
2023-03-05T01:15:38.708Z,68.58
2023-03-05T01:16:40.200Z,68.64
2023-03-05T01:17:42.000Z,68.83
2023-03-05T01:18:43.574Z,68.59
2023-03-05T01:19:45.200Z,68.13
2023-03-05T01:20:47.143Z,68.32
2023-03-05T01:21:48.713Z,68.10
2023-03-05T01:22:50.350Z,68.61
2023-03-05T01:23:52.037Z,68.65
2023-03-05T01:24:53.632Z,68.91
2023-03-05T01:25:56.685Z,69.13
2023-03-05T01:26:58.330Z,68.61
2023-03-05T01:28:00.390Z,68.10
2023-03-05T01:29:02.003Z,68.54
2023-03-05T01:30:04.906Z,67.81
2023-03-05T01:31:10.605Z,68.67
2023-03-05T01:32:15.077Z,68.44
2023-03-05T01:33:17.026Z,68.61
2023-03-05T01:34:18.607Z,69.20
2023-03-05T01:35:22.902Z,68.45
2023-03-05T01:36:25.245Z,68.89
2023-03-05T01:37:27.295Z,68.97
2023-03-05T01:38:28.930Z,68.83
2023-03-05T01:39:30.702Z,69.12
2023-03-05T01:40:32.416Z,68.71
2023-03-05T01:41:34.981Z,68.48
2023-03-05T01:42:36.674Z,68.33
2023-03-05T01:43:38.676Z,68.16
2023-03-05T01:44:40.235Z,68.71
2023-03-05T01:46:19.081Z,68.67
2023-03-05T01:47:20.610Z,68.98
2023-03-05T01:48:22.419Z,69.10
2023-03-05T01:49:29.731Z,69.25
2023-03-05T01:50:31.502Z,69.35
2023-03-05T01:51:40.883Z,69.19
2023-03-05T01:52:48.429Z,68.88
2023-03-05T01:53:50.286Z,69.84
2023-03-05T01:54:58.928Z,69.07
2023-03-05T01:56:00.494Z,68.85
2023-03-05T01:57:07.663Z,68.79
2023-03-05T01:58:13.672Z,68.74
2023-03-05T01:59:16.666Z,68.80
2023-03-05T02:00:38.986Z,68.74
2023-03-05T02:01:44.499Z,69.15
2023-03-05T02:02:49.077Z,68.80
2023-03-05T02:03:51.122Z,68.92
2023-03-05T02:04:59.313Z,69.29
2023-03-05T02:06:00.978Z,68.87
2023-03-05T02:07:02.695Z,69.14
2023-03-05T02:08:07.839Z,68.76
2023-03-05T02:09:09.860Z,68.35
2023-03-05T02:10:22.994Z,68.50
2023-03-05T02:11:24.634Z,68.49
2023-03-05T02:12:26.148Z,69.19
2023-03-05T02:13:31.978Z,69.26
2023-03-05T02:14:33.972Z,68.99
2023-03-05T02:15:36.070Z,68.73
2023-03-05T02:16:38.675Z,68.48
2023-03-05T02:17:40.580Z,68.67
2023-03-05T02:18:42.091Z,69.15
2023-03-05T02:19:55.780Z,68.98
2023-03-05T02:20:57.182Z,68.44
2023-03-05T02:21:58.739Z,68.63
2023-03-05T02:23:00.224Z,68.67
2023-03-05T02:24:01.679Z,68.17
2023-03-05T02:25:22.824Z,68.46
2023-03-05T02:26:24.300Z,68.98
2023-03-05T02:27:35.047Z,69.12
2023-03-05T02:28:49.222Z,68.97
2023-03-05T02:29:52.373Z,69.06
2023-03-05T02:30:54.114Z,68.52
2023-03-05T02:31:55.621Z,68.71
2023-03-05T02:32:57.479Z,68.45
2023-03-05T02:33:59.019Z,68.68
2023-03-05T02:35:00.467Z,68.14
2023-03-05T02:36:02.035Z,69.54
2023-03-05T02:37:04.710Z,69.19
2023-03-05T02:38:06.591Z,69.26
2023-03-05T02:39:09.716Z,68.90
2023-03-05T02:40:12.980Z,68.08
2023-03-05T02:41:15.258Z,68.36
2023-03-05T02:42:16.778Z,68.14
2023-03-05T02:43:18.379Z,68.71
2023-03-05T02:44:19.947Z,67.94
2023-03-05T02:45:21.599Z,68.54
2023-03-05T02:46:23.265Z,68.26
2023-03-05T02:47:24.730Z,68.12
2023-03-05T02:48:26.335Z,68.34
2023-03-05T02:49:28.493Z,67.93
2023-03-05T02:50:31.739Z,68.28
2023-03-05T02:51:33.323Z,68.80
2023-03-05T02:52:34.852Z,68.45
2023-03-05T02:53:36.410Z,68.97
2023-03-05T02:54:37.898Z,68.75
2023-03-05T02:55:39.628Z,68.32
2023-03-05T02:56:41.943Z,68.95
2023-03-05T02:57:43.792Z,68.49
2023-03-05T02:58:45.381Z,68.83
2023-03-05T02:59:47.575Z,68.84
2023-03-05T03:00:49.050Z,68.22
2023-03-05T03:01:50.683Z,68.30
2023-03-05T03:02:52.446Z,68.22
2023-03-05T03:03:54.797Z,68.27
2023-03-05T03:04:56.278Z,68.37
2023-03-05T03:05:57.759Z,67.71
2023-03-05T03:06:59.372Z,67.80
2023-03-05T03:08:00.980Z,67.92
2023-03-05T03:09:02.524Z,67.74
2023-03-05T03:10:05.283Z,68.11
2023-03-05T03:11:09.631Z,68.11
2023-03-05T03:12:12.060Z,67.13
2023-03-05T03:13:13.615Z,67.03
2023-03-05T03:14:15.068Z,66.66
2023-03-05T03:15:17.452Z,66.15
2023-03-05T03:16:19.153Z,66.16
2023-03-05T03:17:21.020Z,66.46
2023-03-05T03:18:22.733Z,66.29
2023-03-05T03:19:24.299Z,66.18
2023-03-05T03:20:25.804Z,65.68
2023-03-05T03:21:27.367Z,65.60
2023-03-05T03:22:29.296Z,65.51
2023-03-05T03:23:31.242Z,65.70
2023-03-05T03:24:34.129Z,64.91
2023-03-05T03:25:35.609Z,65.43
2023-03-05T03:26:37.082Z,65.30
2023-03-05T03:27:38.628Z,65.68
2023-03-05T03:28:40.258Z,64.97
2023-03-05T03:29:41.715Z,65.35
2023-03-05T03:30:43.276Z,64.84
2023-03-05T03:31:45.764Z,65.40
2023-03-05T03:32:47.455Z,65.12
2023-03-05T03:33:49.009Z,65.00
2023-03-05T03:34:50.479Z,64.93
2023-03-05T03:35:52.035Z,64.64
2023-03-05T03:36:54.072Z,64.63
2023-03-05T03:37:55.753Z,65.06
2023-03-05T03:38:57.164Z,65.04
2023-03-05T03:39:59.134Z,65.01
2023-03-05T03:41:00.667Z,64.92
2023-03-05T03:42:02.116Z,65.75
2023-03-05T03:43:04.058Z,65.29
2023-03-05T03:44:07.180Z,65.66
2023-03-05T03:45:09.329Z,65.54
2023-03-05T03:46:11.244Z,65.34
2023-03-05T03:47:13.008Z,64.94
2023-03-05T03:48:14.479Z,65.28
2023-03-05T03:49:28.318Z,65.01
2023-03-05T03:50:29.831Z,65.11
2023-03-05T03:51:31.527Z,65.44
2023-03-05T03:52:33.048Z,65.56
2023-03-05T03:53:34.755Z,66.31
2023-03-05T03:54:36.311Z,65.75
2023-03-05T03:55:37.798Z,65.94
2023-03-05T03:56:39.248Z,66.03
2023-03-05T03:57:40.725Z,66.38
2023-03-05T03:58:42.172Z,65.77
2023-03-05T03:59:45.517Z,65.79
2023-03-05T04:00:46.950Z,65.97
2023-03-05T04:01:48.515Z,65.41
2023-03-05T04:02:50.066Z,65.45
2023-03-05T04:03:51.567Z,65.07
2023-03-05T04:04:53.180Z,65.45
2023-03-05T04:05:54.867Z,65.09
2023-03-05T04:06:56.858Z,65.35
2023-03-05T04:07:58.690Z,65.47
2023-03-05T04:09:00.358Z,65.56
2023-03-05T04:10:02.020Z,65.23
2023-03-05T04:11:03.681Z,65.30
2023-03-05T04:12:05.308Z,65.54
2023-03-05T04:13:07.021Z,65.27
2023-03-05T04:14:08.500Z,65.86
2023-03-05T04:15:10.785Z,65.43
2023-03-05T04:16:12.616Z,65.85
2023-03-05T04:17:14.995Z,66.33
2023-03-05T04:18:16.518Z,65.75
2023-03-05T04:19:17.960Z,66.31
2023-03-05T04:20:19.484Z,66.41
2023-03-05T04:21:21.027Z,66.43
2023-03-05T04:22:22.455Z,65.95
2023-03-05T04:23:23.881Z,66.30
2023-03-05T04:24:25.436Z,66.26
2023-03-05T04:25:26.883Z,65.79
2023-03-05T04:26:28.409Z,66.40
2023-03-05T04:27:29.887Z,66.84
2023-03-05T04:28:32.118Z,66.30
2023-03-05T04:29:34.480Z,66.15
2023-03-05T04:30:36.029Z,66.54
2023-03-05T04:31:37.553Z,66.29
2023-03-05T04:32:39.121Z,66.30
2023-03-05T04:33:40.684Z,66.14
2023-03-05T04:34:42.097Z,66.29
2023-03-05T04:35:44.264Z,66.29
2023-03-05T04:36:45.727Z,65.95
2023-03-05T04:37:47.415Z,66.16
2023-03-05T04:38:48.847Z,66.29
2023-03-05T04:39:50.832Z,66.12
2023-03-05T04:40:52.287Z,66.13
2023-03-05T04:41:53.719Z,66.62
2023-03-05T04:42:55.141Z,66.56
2023-03-05T04:43:56.749Z,66.51
2023-03-05T04:44:58.249Z,66.78
2023-03-05T04:45:59.755Z,66.33
2023-03-05T04:47:01.209Z,66.64
2023-03-05T04:48:02.673Z,66.79
2023-03-05T04:49:04.248Z,66.60
2023-03-05T04:50:06.544Z,66.83
2023-03-05T04:51:07.991Z,66.83
2023-03-05T04:52:12.197Z,66.69
2023-03-05T04:53:15.608Z,66.93
2023-03-05T04:54:17.318Z,67.47
2023-03-05T04:55:21.389Z,67.53
2023-03-05T04:56:22.895Z,67.34
2023-03-05T04:57:24.620Z,67.47
2023-03-05T04:58:26.053Z,67.45
2023-03-05T04:59:27.499Z,67.43
2023-03-05T05:00:28.997Z,67.77
2023-03-05T05:01:30.584Z,68.16
2023-03-05T05:02:32.670Z,69.19
2023-03-05T05:03:34.582Z,69.36
2023-03-05T05:04:36.209Z,68.78
2023-03-05T05:05:37.824Z,68.91
2023-03-05T05:06:39.564Z,69.09
2023-03-05T05:07:41.278Z,69.47
2023-03-05T05:08:43.518Z,69.53
2023-03-05T05:09:44.979Z,69.53
2023-03-05T05:10:46.407Z,69.90
2023-03-05T05:11:47.854Z,69.49
2023-03-05T05:12:49.323Z,69.49
2023-03-05T05:13:50.812Z,69.12
2023-03-05T05:14:52.327Z,69.32
2023-03-05T05:15:54.256Z,68.95
2023-03-05T05:16:55.880Z,68.57
2023-03-05T05:17:57.330Z,68.82
2023-03-05T05:18:58.830Z,68.89
2023-03-05T05:20:01.603Z,69.05
2023-03-05T05:21:07.625Z,69.82
2023-03-05T05:22:09.104Z,69.20
2023-03-05T05:23:10.562Z,69.78
2023-03-05T05:24:12.152Z,69.54
2023-03-05T05:25:13.677Z,69.48
2023-03-05T05:26:15.514Z,69.25
2023-03-05T05:27:17.356Z,69.42
2023-03-05T05:28:18.796Z,68.55
2023-03-05T05:29:20.251Z,68.83
2023-03-05T05:30:21.822Z,68.64
2023-03-05T05:31:23.293Z,69.00
2023-03-05T05:32:25.013Z,69.06
2023-03-05T05:33:27.119Z,68.92
2023-03-05T05:34:28.667Z,68.83
2023-03-05T05:35:30.216Z,69.02
2023-03-05T05:36:31.929Z,69.08
2023-03-05T05:37:33.375Z,68.95
2023-03-05T05:38:35.314Z,68.92
2023-03-05T05:39:36.920Z,69.10
2023-03-05T05:40:38.449Z,69.08
2023-03-05T05:41:39.922Z,69.20
2023-03-05T05:42:41.429Z,69.48
2023-03-05T05:43:43.307Z,69.42
2023-03-05T05:44:45.026Z,69.16
2023-03-05T05:45:46.699Z,68.74
2023-03-05T05:46:48.322Z,68.52
2023-03-05T05:47:49.777Z,68.92
2023-03-05T05:48:51.489Z,68.97
2023-03-05T05:49:52.936Z,68.92
2023-03-05T05:50:54.418Z,68.90
2023-03-05T05:51:56.201Z,68.63
2023-03-05T05:52:57.679Z,68.75
2023-03-05T05:53:59.140Z,69.15
2023-03-05T05:55:00.579Z,69.20
2023-03-05T05:56:07.823Z,69.26
2023-03-05T05:57:09.340Z,69.47
2023-03-05T05:58:10.789Z,69.51
2023-03-05T05:59:12.234Z,69.18
2023-03-05T06:00:14.803Z,69.12
2023-03-05T06:01:28.272Z,70.19
2023-03-05T06:02:29.717Z,70.07
2023-03-05T06:03:31.281Z,69.51
2023-03-05T06:04:32.744Z,69.45
2023-03-05T06:05:34.948Z,70.01
2023-03-05T06:06:36.760Z,69.75
2023-03-05T06:07:38.193Z,70.07
2023-03-05T06:08:40.069Z,69.57
2023-03-05T06:09:41.557Z,69.38
2023-03-05T06:10:43.086Z,70.05
2023-03-05T06:11:44.866Z,69.41
2023-03-05T06:12:46.470Z,69.58
2023-03-05T06:13:49.356Z,69.62
2023-03-05T06:14:50.822Z,69.31
2023-03-05T06:16:00.213Z,69.60
2023-03-05T06:17:01.716Z,69.81
2023-03-05T06:18:03.342Z,69.95
2023-03-05T06:19:05.324Z,69.90
2023-03-05T06:20:07.332Z,69.74
2023-03-05T06:21:14.739Z,69.80
2023-03-05T06:22:16.204Z,69.97
2023-03-05T06:23:17.646Z,70.23
2023-03-05T06:24:19.404Z,69.84
2023-03-05T06:25:20.989Z,69.95
2023-03-05T06:26:22.678Z,69.95
2023-03-05T06:27:24.101Z,70.13
2023-03-05T06:28:25.843Z,70.06
2023-03-05T06:29:27.337Z,70.38
2023-03-05T06:30:28.929Z,69.72
2023-03-05T06:31:30.831Z,70.27
2023-03-05T06:32:32.337Z,70.14
2023-03-05T06:33:35.094Z,69.58
2023-03-05T06:34:36.576Z,70.20
2023-03-05T06:35:41.971Z,70.34
2023-03-05T06:36:44.232Z,70.35
2023-03-05T06:37:45.814Z,70.31
2023-03-05T06:38:48.997Z,70.56
2023-03-05T06:39:50.573Z,70.07
2023-03-05T06:40:52.485Z,70.62
2023-03-05T06:41:53.929Z,70.21
2023-03-05T06:42:55.386Z,70.13
2023-03-05T06:43:57.491Z,70.05
2023-03-05T06:44:58.973Z,70.42
2023-03-05T06:46:05.188Z,70.69
2023-03-05T06:47:07.697Z,70.54
2023-03-05T06:48:09.143Z,70.64
2023-03-05T06:49:10.701Z,70.59
2023-03-05T06:50:12.375Z,70.06
2023-03-05T06:51:28.704Z,70.12
2023-03-05T06:52:30.171Z,70.52
2023-03-05T06:53:31.661Z,70.63
2023-03-05T06:54:33.358Z,70.86
2023-03-05T06:55:39.673Z,70.70
2023-03-05T06:56:44.171Z,70.36
2023-03-05T06:57:45.794Z,70.82
2023-03-05T06:58:49.264Z,70.45
2023-03-05T06:59:50.764Z,70.63
2023-03-05T07:00:52.252Z,71.31
2023-03-05T07:01:54.075Z,71.17
2023-03-05T07:02:55.538Z,71.38
2023-03-05T07:04:00.262Z,70.70
2023-03-05T07:05:01.797Z,70.87
2023-03-05T07:06:05.374Z,70.93
2023-03-05T07:07:07.094Z,70.40
2023-03-05T07:08:09.007Z,70.95
2023-03-05T07:09:14.829Z,70.52
2023-03-05T07:10:16.441Z,70.59
2023-03-05T07:11:20.493Z,70.56
2023-03-05T07:12:21.958Z,70.71
2023-03-05T07:13:23.427Z,70.51
2023-03-05T07:14:24.831Z,70.59
2023-03-05T07:15:26.290Z,70.57
2023-03-05T07:16:31.086Z,70.40
2023-03-05T07:17:32.715Z,70.02
2023-03-05T07:18:34.637Z,70.52
2023-03-05T07:19:36.055Z,70.51
2023-03-05T07:20:37.884Z,70.01
2023-03-05T07:21:40.142Z,70.57
2023-03-05T07:22:41.695Z,70.14
2023-03-05T07:23:43.126Z,70.08
2023-03-05T07:24:44.579Z,69.73
2023-03-05T07:25:45.979Z,69.79
2023-03-05T07:26:48.915Z,70.19
2023-03-05T07:27:50.689Z,69.73
2023-03-05T07:28:52.742Z,70.03
2023-03-05T07:29:54.248Z,69.64
2023-03-05T07:31:07.310Z,69.81
2023-03-05T07:32:08.986Z,70.17
2023-03-05T07:33:10.586Z,70.63
2023-03-05T07:34:12.063Z,70.17
2023-03-05T07:35:13.640Z,70.44
2023-03-05T07:36:15.444Z,70.23
2023-03-05T07:37:16.913Z,70.52
2023-03-05T07:38:18.484Z,70.78
2023-03-05T07:39:19.933Z,70.76
2023-03-05T07:40:22.467Z,70.60
2023-03-05T07:41:24.374Z,70.14
2023-03-05T07:42:26.242Z,70.07
2023-03-05T07:43:27.840Z,69.79
2023-03-05T07:44:29.256Z,69.23
2023-03-05T07:45:30.771Z,69.14
2023-03-05T07:46:34.646Z,68.91
2023-03-05T07:47:36.833Z,68.48
2023-03-05T07:48:38.816Z,68.81
2023-03-05T07:49:41.662Z,68.93
2023-03-05T07:50:44.235Z,68.70
2023-03-05T07:51:45.763Z,68.48
2023-03-05T07:52:47.205Z,69.01
2023-03-05T07:53:50.184Z,69.61
2023-03-05T07:54:51.898Z,68.95
2023-03-05T07:55:53.361Z,69.38
2023-03-05T07:56:55.005Z,68.47
2023-03-05T07:57:56.558Z,68.17
2023-03-05T07:58:59.659Z,67.68
2023-03-05T08:00:01.207Z,68.22
2023-03-05T08:01:03.415Z,67.63
2023-03-05T08:02:05.160Z,67.25
2023-03-05T08:03:07.102Z,67.51
2023-03-05T08:04:10.861Z,67.30
2023-03-05T08:05:12.475Z,67.64
2023-03-05T08:06:13.991Z,68.24
2023-03-05T08:07:16.479Z,68.04
2023-03-05T08:08:18.685Z,68.10
2023-03-05T08:09:20.704Z,68.25
2023-03-05T08:10:22.206Z,68.23
2023-03-05T08:11:24.034Z,68.23
2023-03-05T08:12:25.596Z,67.64
2023-03-05T08:13:27.296Z,67.40
2023-03-05T08:14:28.972Z,67.70
2023-03-05T08:15:31.768Z,67.87
2023-03-05T08:16:33.303Z,67.76
2023-03-05T08:17:34.873Z,67.57
2023-03-05T08:18:36.351Z,67.63
2023-03-05T08:19:37.808Z,67.21
2023-03-05T08:20:40.207Z,67.40
2023-03-05T08:21:41.733Z,66.59
2023-03-05T08:22:43.248Z,66.46
2023-03-05T08:23:44.748Z,66.59
2023-03-05T08:24:46.673Z,66.63
2023-03-05T08:25:48.187Z,66.47
2023-03-05T08:26:49.693Z,67.01
2023-03-05T08:27:51.234Z,66.20
2023-03-05T08:28:53.264Z,66.18
2023-03-05T08:29:54.805Z,65.62
2023-03-05T08:30:56.521Z,65.99
2023-03-05T08:31:58.122Z,66.23
2023-03-05T08:32:59.566Z,66.66
2023-03-05T08:34:02.130Z,66.81
2023-03-05T08:35:04.727Z,67.02
2023-03-05T08:36:06.939Z,66.51
2023-03-05T08:37:09.284Z,66.01
2023-03-05T08:38:10.890Z,65.13
2023-03-05T08:39:12.346Z,64.82
2023-03-05T08:40:14.449Z,64.58
2023-03-05T08:41:17.305Z,64.37
2023-03-05T08:42:19.153Z,63.91
2023-03-05T08:43:20.590Z,63.78
2023-03-05T08:44:22.109Z,64.09
2023-03-05T08:45:24.180Z,64.00
2023-03-05T08:46:25.734Z,64.04
2023-03-05T08:47:28.031Z,63.92
2023-03-05T08:48:29.950Z,63.78
2023-03-05T08:49:31.470Z,63.90
2023-03-05T08:50:32.978Z,63.32
2023-03-05T08:51:35.856Z,63.17
2023-03-05T08:52:37.348Z,63.24
2023-03-05T08:53:39.240Z,63.29
2023-03-05T08:54:40.785Z,62.67
2023-03-05T08:55:44.169Z,62.63
2023-03-05T08:56:46.113Z,61.89
2023-03-05T08:57:47.619Z,61.98
2023-03-05T08:58:49.326Z,61.88
2023-03-05T08:59:51.168Z,61.80
2023-03-05T09:02:10.916Z,61.87
2023-03-05T09:03:12.516Z,62.34
2023-03-05T09:04:15.369Z,62.38
2023-03-05T09:05:17.316Z,62.75
2023-03-05T09:06:18.784Z,62.18
2023-03-05T09:07:22.054Z,62.44
2023-03-05T09:08:23.626Z,62.84
2023-03-05T09:09:25.184Z,62.75
2023-03-05T09:10:26.774Z,62.72
2023-03-05T09:11:28.206Z,63.21
2023-03-05T09:12:29.633Z,62.71
2023-03-05T09:13:31.347Z,62.63
2023-03-05T09:14:32.748Z,62.41
2023-03-05T09:15:34.176Z,61.62
2023-03-05T09:16:37.444Z,61.14
2023-03-05T09:17:41.736Z,61.49
2023-03-05T09:18:43.265Z,61.67
2023-03-05T09:19:44.718Z,62.22
2023-03-05T09:20:46.219Z,62.16
2023-03-05T09:21:47.662Z,61.81
2023-03-05T09:22:49.189Z,61.74
2023-03-05T09:23:50.750Z,62.02
2023-03-05T09:24:52.272Z,62.17
2023-03-05T09:26:01.562Z,62.12
2023-03-05T09:27:06.213Z,61.50
2023-03-05T09:28:08.583Z,61.85
2023-03-05T09:29:10.154Z,61.78
2023-03-05T09:30:13.926Z,62.09
2023-03-05T09:31:16.139Z,62.01
2023-03-05T09:32:17.669Z,61.64
2023-03-05T09:33:19.216Z,61.35
2023-03-05T09:34:21.433Z,60.54
2023-03-05T09:35:23.191Z,60.79
2023-03-05T09:36:27.385Z,60.88
2023-03-05T09:37:29.451Z,60.96
2023-03-05T09:38:31.464Z,60.21
2023-03-05T09:39:32.908Z,60.95
2023-03-05T09:41:16.379Z,60.82
2023-03-05T09:42:33.034Z,61.16
2023-03-05T09:43:43.525Z,61.42
2023-03-05T09:44:57.858Z,62.15
2023-03-05T09:46:17.825Z,61.35
2023-03-05T09:47:25.433Z,62.14
2023-03-05T09:48:46.272Z,61.96
2023-03-05T09:50:18.488Z,61.42
2023-03-05T09:51:29.637Z,61.15
2023-03-05T09:52:30.998Z,61.14
2023-03-05T09:53:35.471Z,61.10
2023-03-05T09:54:44.066Z,60.85
2023-03-05T09:55:55.148Z,59.96
2023-03-05T09:57:00.267Z,60.08
2023-03-05T09:58:12.618Z,60.06
2023-03-05T09:59:23.574Z,60.38
2023-03-05T10:00:36.514Z,59.76
2023-03-05T10:01:42.477Z,59.22
2023-03-05T10:02:55.722Z,58.71
2023-03-05T10:04:02.286Z,59.26
2023-03-05T10:05:32.774Z,59.31
2023-03-05T10:06:49.088Z,58.74
2023-03-05T10:08:03.362Z,58.45
2023-03-05T10:09:18.269Z,59.17
2023-03-05T10:10:51.324Z,58.93
2023-03-05T10:12:14.798Z,58.63
2023-03-05T10:13:24.828Z,58.10
2023-03-05T10:14:29.079Z,57.47
2023-03-05T10:15:50.372Z,58.07
2023-03-05T10:16:58.068Z,57.61
2023-03-05T10:18:32.961Z,57.51
2023-03-05T10:20:03.792Z,57.91
2023-03-05T10:21:16.031Z,57.93
2023-03-05T10:22:22.358Z,57.85
2023-03-05T10:23:42.303Z,57.10
2023-03-05T10:24:53.099Z,57.36
2023-03-05T10:26:12.437Z,57.64
2023-03-05T10:27:32.376Z,57.37
2023-03-05T10:28:54.548Z,57.82
2023-03-05T10:30:25.342Z,57.88
2023-03-05T10:31:49.815Z,57.03
2023-03-05T10:32:51.702Z,56.59
2023-03-05T10:34:02.298Z,56.23
2023-03-05T10:35:06.930Z,56.62
2023-03-05T10:36:26.573Z,56.67
2023-03-05T10:37:47.167Z,56.41
2023-03-05T10:39:23.076Z,56.26
2023-03-05T10:40:24.802Z,56.46
2023-03-05T10:41:26.312Z,56.29
2023-03-05T10:42:34.387Z,56.35
2023-03-05T10:43:49.389Z,56.21
2023-03-05T10:44:52.836Z,55.72
2023-03-05T10:45:56.289Z,55.53
2023-03-05T10:47:02.686Z,55.96
2023-03-05T10:48:15.976Z,55.61
2023-03-05T10:49:21.954Z,55.53
2023-03-05T10:50:29.374Z,55.68
2023-03-05T10:51:39.488Z,55.61
2023-03-05T10:52:46.702Z,55.04
2023-03-05T10:53:56.348Z,54.30
2023-03-05T10:54:57.885Z,53.99
2023-03-05T10:56:06.695Z,53.79
2023-03-05T10:57:19.247Z,53.31
2023-03-05T10:58:21.729Z,53.05
2023-03-05T10:59:23.962Z,53.26
2023-03-05T11:00:28.012Z,53.77
2023-03-05T11:01:32.403Z,54.20
2023-03-05T11:02:34.557Z,54.10
2023-03-05T11:03:51.601Z,54.12
2023-03-05T11:04:54.737Z,52.95
2023-03-05T11:06:01.922Z,52.82
2023-03-05T11:07:27.950Z,52.91
2023-03-05T11:08:34.930Z,52.98
2023-03-05T11:09:36.451Z,52.89
2023-03-05T11:10:37.900Z,53.23
2023-03-05T11:11:39.419Z,53.30
2023-03-05T11:12:41.094Z,53.26
2023-03-05T11:13:58.064Z,53.40
2023-03-05T11:15:14.865Z,53.84
2023-03-05T11:16:21.142Z,54.40
2023-03-05T11:17:24.605Z,54.08
2023-03-05T11:18:26.370Z,53.47
2023-03-05T11:19:33.279Z,53.36
2023-03-05T11:20:36.464Z,52.77
2023-03-05T11:21:38.061Z,52.85
2023-03-05T11:22:39.821Z,53.05
2023-03-05T11:23:41.264Z,53.10
2023-03-05T11:24:46.626Z,52.96
2023-03-05T11:26:08.548Z,52.70
2023-03-05T11:27:31.358Z,52.24
2023-03-05T11:28:54.813Z,52.44
2023-03-05T11:29:56.471Z,52.37
2023-03-05T11:30:59.834Z,52.45
2023-03-05T11:32:24.293Z,52.47
2023-03-05T11:33:26.432Z,52.27
2023-03-05T11:34:35.397Z,51.92
2023-03-05T11:35:41.224Z,52.54
2023-03-05T11:36:58.990Z,52.44
2023-03-05T11:38:02.828Z,51.96
2023-03-05T11:39:10.637Z,51.57
2023-03-05T11:40:22.543Z,51.83
2023-03-05T11:41:32.313Z,51.30
2023-03-05T11:42:34.027Z,50.93
2023-03-05T11:43:38.044Z,51.12
2023-03-05T11:44:47.886Z,50.72
2023-03-05T11:46:03.780Z,51.14
2023-03-05T11:47:25.375Z,51.63
2023-03-05T11:48:32.286Z,50.92
2023-03-05T11:49:41.894Z,51.83
2023-03-05T11:50:48.772Z,51.53
2023-03-05T11:52:02.285Z,50.79
2023-03-05T11:53:09.777Z,50.27
2023-03-05T11:54:20.411Z,50.36
2023-03-05T11:55:29.930Z,49.88
2023-03-05T11:56:36.782Z,49.27
2023-03-05T11:58:04.367Z,49.14
2023-03-05T11:59:15.335Z,49.63
2023-03-05T12:00:21.758Z,49.46
2023-03-05T12:01:25.841Z,49.95
2023-03-05T12:02:28.046Z,50.50
2023-03-05T12:03:33.912Z,50.54
2023-03-05T12:04:36.417Z,49.28
2023-03-05T12:05:43.786Z,47.92
2023-03-05T12:06:45.833Z,47.47
2023-03-05T12:07:50.551Z,47.57
2023-03-05T12:08:58.857Z,48.27
2023-03-05T12:10:01.926Z,48.57
2023-03-05T12:11:09.443Z,48.10
2023-03-05T12:12:14.547Z,47.78
2023-03-05T12:13:32.097Z,47.47
2023-03-05T12:14:48.180Z,48.15
2023-03-05T12:16:17.465Z,48.22
2023-03-05T12:17:23.568Z,47.79
2023-03-05T12:18:37.160Z,46.88
2023-03-05T12:20:06.275Z,46.84
2023-03-05T12:23:22.928Z,47.44
2023-03-05T12:24:32.652Z,47.75
2023-03-05T12:25:46.669Z,48.00
2023-03-05T12:27:03.470Z,47.80
2023-03-05T12:28:04.951Z,48.31
2023-03-05T12:29:28.999Z,48.60
2023-03-05T12:30:53.844Z,48.97
2023-03-05T12:31:55.664Z,49.09
2023-03-05T12:32:57.212Z,48.98
2023-03-05T12:33:58.633Z,48.37
2023-03-05T12:35:01.074Z,48.86
2023-03-05T12:36:17.851Z,48.45
2023-03-05T12:37:21.849Z,49.16
2023-03-05T12:38:33.673Z,49.32
2023-03-05T12:39:44.254Z,49.66
2023-03-05T12:40:45.749Z,49.33
2023-03-05T12:41:47.655Z,49.36
2023-03-05T12:42:56.575Z,49.51
2023-03-05T12:44:07.218Z,49.65
2023-03-05T12:45:15.925Z,50.09
2023-03-05T12:46:29.427Z,50.74
2023-03-05T12:47:33.971Z,50.62
2023-03-05T12:48:43.317Z,50.84
2023-03-05T12:49:46.129Z,51.22
2023-03-05T12:50:48.681Z,50.96
2023-03-05T12:51:54.555Z,51.04
2023-03-05T12:53:05.138Z,51.43
2023-03-05T12:54:29.520Z,51.51
2023-03-05T12:55:40.081Z,51.48
2023-03-05T12:56:47.208Z,51.50
2023-03-05T12:57:56.631Z,51.74
2023-03-05T12:59:00.865Z,51.47
2023-03-05T13:00:21.421Z,51.36
2023-03-05T13:01:35.139Z,51.87
2023-03-05T13:02:46.167Z,50.98
2023-03-05T13:03:53.085Z,51.04
2023-03-05T13:04:59.578Z,51.55
2023-03-05T13:06:01.174Z,50.81
2023-03-05T13:07:06.127Z,50.84
2023-03-05T13:08:27.921Z,50.43
2023-03-05T13:09:33.546Z,50.59
2023-03-05T13:10:35.025Z,50.35
2023-03-05T13:11:39.388Z,50.69
2023-03-05T13:12:52.970Z,50.62
2023-03-05T13:13:55.689Z,50.79
2023-03-05T13:15:01.103Z,50.59
2023-03-05T13:16:03.673Z,50.02
2023-03-05T13:17:47.423Z,50.06
2023-03-05T13:18:49.983Z,50.52
2023-03-05T13:19:52.444Z,50.12
2023-03-05T13:21:12.910Z,50.69
2023-03-05T13:22:14.669Z,50.96
2023-03-05T13:23:26.930Z,50.92
2023-03-05T13:24:29.983Z,50.77
2023-03-05T13:25:31.591Z,50.55
2023-03-05T13:26:41.113Z,50.19
2023-03-05T13:27:43.414Z,50.84
2023-03-05T13:29:16.013Z,50.42
2023-03-05T13:30:27.106Z,49.67
2023-03-05T13:31:28.819Z,49.80
2023-03-05T13:32:33.169Z,49.58
2023-03-05T13:33:36.408Z,49.69
2023-03-05T13:34:47.345Z,49.98
2023-03-05T13:35:49.242Z,49.74
2023-03-05T13:37:00.858Z,50.15
2023-03-05T13:38:05.056Z,50.27
2023-03-05T13:39:07.532Z,50.26
2023-03-05T13:40:22.352Z,50.03
2023-03-05T13:41:25.983Z,49.87
2023-03-05T13:42:36.173Z,50.33
2023-03-05T13:43:46.890Z,50.77
2023-03-05T13:45:03.531Z,51.25
2023-03-05T13:46:05.091Z,50.90
2023-03-05T13:47:16.861Z,50.47
2023-03-05T13:48:21.474Z,50.26
2023-03-05T13:49:26.033Z,50.08
2023-03-05T13:50:30.962Z,50.12
2023-03-05T13:51:43.987Z,50.68
2023-03-05T13:52:45.444Z,50.30
2023-03-05T13:53:47.441Z,50.39
2023-03-05T13:54:49.163Z,50.53
2023-03-05T13:55:53.597Z,50.48